Terminal Aerodrome Forecast
Issued by NWS

Home | Current Version | Previous Version | Text Only | Print | Product List | Glossary On
Versions: 1 2 3 4 5 6 7 8 9 10 11 12 13 14 15
310
FTUS46 KSEW 292338
TAFBFI
TAF
KBFI 292338Z 3000/3024 VRB03KT P6SM SCT035 BKN050
     FM300200 31006KT P6SM SCT035 BKN050
     FM301100 VRB03KT P6SM BKN025 OVC040
     FM301900 VRB03KT P6SM SCT035 BKN050
     FM302100 33008KT P6SM SCT050=

USA.gov is the U.S. government's official web portal to all federal, state and local government web resources and services.